sensor_id;sensor_type;location;lat;lon;timestamp;P1;durP1;ratioP1;P2;durP2;ratioP2
30000;SDS011;16845;48.670;9.000;2023-03-14T00:01:00;3.17;;;1.40;;
30000;SDS011;16845;48.670;9.000;2023-03-14T00:03:36;4.03;;;1.75;;
30000;SDS011;16845;48.670;9.000;2023-03-14T00:06:05;2.03;;;1.20;;
30000;SDS011;16845;48.670;9.000;2023-03-14T00:08:34;1.90;;;1.30;;
30000;SDS011;16845;48.670;9.000;2023-03-14T00:11:06;4.20;;;1.55;;
30000;SDS011;16845;48.670;9.000;2023-03-14T00:13:35;4.25;;;1.10;;
30000;SDS011;16845;48.670;9.000;2023-03-14T00:16:04;1.95;;;1.15;;
30000;SDS011;16845;48.670;9.000;2023-03-14T00:18:33;3.30;;;1.20;;
30000;SDS011;16845;48.670;9.000;2023-03-14T00:21:03;1.73;;;1.10;;
30000;SDS011;16845;48.670;9.000;2023-03-14T00:23:33;1.08;;;1.02;;
30000;SDS011;16845;48.670;9.000;2023-03-14T00:26:03;1.35;;;1.15;;
30000;SDS011;16845;48.670;9.000;2023-03-14T00:28:32;4.90;;;0.70;;
30000;SDS011;16845;48.670;9.000;2023-03-14T00:31:02;2.55;;;0.98;;
30000;SDS011;16845;48.670;9.000;2023-03-14T00:33:30;1.48;;;0.70;;
30000;SDS011;16845;48.670;9.000;2023-03-14T00:35:59;1.42;;;0.80;;
30000;SDS011;16845;48.670;9.000;2023-03-14T00:38:30;2.22;;;0.90;;
30000;SDS011;16845;48.670;9.000;2023-03-14T00:40:59;0.90;;;0.70;;
30000;SDS011;16845;48.670;9.000;2023-03-14T00:43:29;2.85;;;0.60;;
30000;SDS011;16845;48.670;9.000;2023-03-14T00:45:58;3.03;;;1.13;;
30000;SDS011;16845;48.670;9.000;2023-03-14T00:48:26;3.33;;;1.00;;
30000;SDS011;16845;48.670;9.000;2023-03-14T00:50:54;0.68;;;0.68;;
30000;SDS011;16845;48.670;9.000;2023-03-14T00:53:22;1.30;;;0.60;;
30000;SDS011;16845;48.670;9.000;2023-03-14T00:55:52;1.33;;;0.60;;
30000;SDS011;16845;48.670;9.000;2023-03-14T00:58:20;0.55;;;0.50;;
30000;SDS011;16845;48.670;9.000;2023-03-14T01:00:48;1.10;;;0.60;;
30000;SDS011;16845;48.670;9.000;2023-03-14T01:03:15;2.22;;;0.73;;
30000;SDS011;16845;48.670;9.000;2023-03-14T01:05:43;1.00;;;0.50;;
30000;SDS011;16845;48.670;9.000;2023-03-14T01:08:11;2.58;;;0.65;;
30000;SDS011;16845;48.670;9.000;2023-03-14T01:10:40;1.00;;;0.60;;
30000;SDS011;16845;48.670;9.000;2023-03-14T01:13:09;2.13;;;0.80;;
30000;SDS011;16845;48.670;9.000;2023-03-14T01:15:37;0.68;;;0.60;;
30000;SDS011;16845;48.670;9.000;2023-03-14T01:18:05;0.50;;;0.50;;
30000;SDS011;16845;48.670;9.000;2023-03-14T01:20:33;0.50;;;0.50;;
30000;SDS011;16845;48.670;9.000;2023-03-14T01:23:01;1.40;;;1.20;;
30000;SDS011;16845;48.670;9.000;2023-03-14T01:25:29;1.38;;;0.60;;
30000;SDS011;16845;48.670;9.000;2023-03-14T01:27:57;0.73;;;0.70;;
30000;SDS011;16845;48.670;9.000;2023-03-14T01:30:28;2.70;;;0.82;;
30000;SDS011;16845;48.670;9.000;2023-03-14T01:32:56;2.63;;;0.60;;
30000;SDS011;16845;48.670;9.000;2023-03-14T01:35:24;1.25;;;0.60;;
30000;SDS011;16845;48.670;9.000;2023-03-14T01:37:51;3.10;;;1.13;;
30000;SDS011;16845;48.670;9.000;2023-03-14T01:40:20;0.70;;;0.60;;
30000;SDS011;16845;48.670;9.000;2023-03-14T01:42:53;0.50;;;0.47;;
30000;SDS011;16845;48.670;9.000;2023-03-14T01:48:31;1.77;;;0.82;;
30000;SDS011;16845;48.670;9.000;2023-03-14T01:51:03;1.40;;;0.65;;
30000;SDS011;16845;48.670;9.000;2023-03-14T01:53:33;1.60;;;0.70;;
30000;SDS011;16845;48.670;9.000;2023-03-14T01:56:02;0.60;;;0.60;;
30000;SDS011;16845;48.670;9.000;2023-03-14T01:58:30;2.92;;;0.82;;
30000;SDS011;16845;48.670;9.000;2023-03-14T02:01:00;0.50;;;0.50;;
30000;SDS011;16845;48.670;9.000;2023-03-14T02:03:31;0.63;;;0.57;;
30000;SDS011;16845;48.670;9.000;2023-03-14T02:06:06;2.00;;;0.80;;
30000;SDS011;16845;48.670;9.000;2023-03-14T02:08:35;1.85;;;0.82;;
30000;SDS011;16845;48.670;9.000;2023-03-14T02:11:04;0.98;;;0.60;;
30000;SDS011;16845;48.670;9.000;2023-03-14T02:13:33;2.45;;;1.17;;
30000;SDS011;16845;48.670;9.000;2023-03-14T02:16:01;1.27;;;0.63;;
30000;SDS011;16845;48.670;9.000;2023-03-14T02:18:29;0.85;;;0.68;;
30000;SDS011;16845;48.670;9.000;2023-03-14T02:21:00;1.75;;;0.60;;
30000;SDS011;16845;48.670;9.000;2023-03-14T02:23:34;0.85;;;0.70;;
30000;SDS011;16845;48.670;9.000;2023-03-14T02:26:09;0.50;;;0.50;;
30000;SDS011;16845;48.670;9.000;2023-03-14T02:28:43;0.63;;;0.63;;
30000;SDS011;16845;48.670;9.000;2023-03-14T02:31:11;0.85;;;0.65;;
30000;SDS011;16845;48.670;9.000;2023-03-14T02:33:39;3.03;;;0.93;;
30000;SDS011;16845;48.670;9.000;2023-03-14T02:36:09;2.97;;;0.98;;
30000;SDS011;16845;48.670;9.000;2023-03-14T02:38:41;0.50;;;0.50;;
30000;SDS011;16845;48.670;9.000;2023-03-14T02:41:14;2.00;;;0.77;;
30000;SDS011;16845;48.670;9.000;2023-03-14T02:43:43;0.70;;;0.70;;
30000;SDS011;16845;48.670;9.000;2023-03-14T02:46:12;1.58;;;0.70;;
30000;SDS011;16845;48.670;9.000;2023-03-14T02:48:42;2.28;;;0.82;;
30000;SDS011;16845;48.670;9.000;2023-03-14T02:51:13;1.05;;;0.60;;
30000;SDS011;16845;48.670;9.000;2023-03-14T02:53:42;0.80;;;0.80;;
30000;SDS011;16845;48.670;9.000;2023-03-14T02:56:10;2.33;;;0.80;;
30000;SDS011;16845;48.670;9.000;2023-03-14T02:58:38;0.70;;;0.63;;
30000;SDS011;16845;48.670;9.000;2023-03-14T03:01:07;1.05;;;0.70;;
30000;SDS011;16845;48.670;9.000;2023-03-14T03:03:35;2.28;;;0.80;;
30000;SDS011;16845;48.670;9.000;2023-03-14T03:06:03;2.47;;;0.80;;
30000;SDS011;16845;48.670;9.000;2023-03-14T03:08:32;1.50;;;1.08;;
30000;SDS011;16845;48.670;9.000;2023-03-14T03:11:00;1.98;;;0.80;;
30000;SDS011;16845;48.670;9.000;2023-03-14T03:13:28;2.38;;;0.90;;
30000;SDS011;16845;48.670;9.000;2023-03-14T03:15:56;2.90;;;0.90;;
30000;SDS011;16845;48.670;9.000;2023-03-14T03:18:26;1.08;;;0.55;;
30000;SDS011;16845;48.670;9.000;2023-03-14T03:20:54;5.32;;;1.40;;
30000;SDS011;16845;48.670;9.000;2023-03-14T03:23:22;3.05;;;0.95;;
30000;SDS011;16845;48.670;9.000;2023-03-14T03:25:50;4.70;;;1.00;;
30000;SDS011;16845;48.670;9.000;2023-03-14T03:28:19;4.97;;;2.22;;
30000;SDS011;16845;48.670;9.000;2023-03-14T03:30:47;4.80;;;1.77;;
30000;SDS011;16845;48.670;9.000;2023-03-14T03:33:15;6.60;;;1.10;;
30000;SDS011;16845;48.670;9.000;2023-03-14T03:35:45;1.48;;;1.08;;
30000;SDS011;16845;48.670;9.000;2023-03-14T03:38:15;5.70;;;1.70;;
30000;SDS011;16845;48.670;9.000;2023-03-14T03:40:43;5.93;;;1.30;;
30000;SDS011;16845;48.670;9.000;2023-03-14T03:43:12;3.42;;;1.00;;
30000;SDS011;16845;48.670;9.000;2023-03-14T03:45:39;2.92;;;1.05;;
30000;SDS011;16845;48.670;9.000;2023-03-14T03:48:08;3.55;;;1.00;;
30000;SDS011;16845;48.670;9.000;2023-03-14T03:50:35;4.60;;;1.10;;
30000;SDS011;16845;48.670;9.000;2023-03-14T03:53:05;2.42;;;1.05;;
30000;SDS011;16845;48.670;9.000;2023-03-14T03:55:33;3.80;;;1.45;;
30000;SDS011;16845;48.670;9.000;2023-03-14T03:58:00;3.08;;;1.35;;
30000;SDS011;16845;48.670;9.000;2023-03-14T04:00:28;5.00;;;1.50;;
30000;SDS011;16845;48.670;9.000;2023-03-14T04:02:57;9.25;;;1.65;;
30000;SDS011;16845;48.670;9.000;2023-03-14T04:05:25;6.95;;;1.27;;
30000;SDS011;16845;48.670;9.000;2023-03-14T04:07:53;9.88;;;1.65;;
30000;SDS011;16845;48.670;9.000;2023-03-14T04:10:23;1.80;;;0.93;;
30000;SDS011;16845;48.670;9.000;2023-03-14T04:12:51;5.60;;;1.00;;
30000;SDS011;16845;48.670;9.000;2023-03-14T04:15:19;5.00;;;1.17;;
30000;SDS011;16845;48.670;9.000;2023-03-14T04:17:47;10.70;;;1.20;;
30000;SDS011;16845;48.670;9.000;2023-03-14T04:20:15;4.45;;;1.08;;
30000;SDS011;16845;48.670;9.000;2023-03-14T04:22:43;7.22;;;1.63;;
30000;SDS011;16845;48.670;9.000;2023-03-14T04:25:11;8.50;;;1.00;;
30000;SDS011;16845;48.670;9.000;2023-03-14T04:27:40;7.35;;;1.70;;
30000;SDS011;16845;48.670;9.000;2023-03-14T04:30:08;5.63;;;1.40;;
30000;SDS011;16845;48.670;9.000;2023-03-14T04:32:38;4.78;;;1.30;;
30000;SDS011;16845;48.670;9.000;2023-03-14T04:35:06;4.00;;;1.20;;
30000;SDS011;16845;48.670;9.000;2023-03-14T04:37:35;6.60;;;1.33;;
30000;SDS011;16845;48.670;9.000;2023-03-14T04:40:03;3.30;;;1.23;;
30000;SDS011;16845;48.670;9.000;2023-03-14T04:42:32;5.95;;;1.05;;
30000;SDS011;16845;48.670;9.000;2023-03-14T04:45:02;4.53;;;1.20;;
30000;SDS011;16845;48.670;9.000;2023-03-14T04:47:30;7.70;;;1.70;;
30000;SDS011;16845;48.670;9.000;2023-03-14T04:49:58;8.32;;;1.65;;
30000;SDS011;16845;48.670;9.000;2023-03-14T04:52:27;6.95;;;1.33;;
30000;SDS011;16845;48.670;9.000;2023-03-14T04:54:55;6.25;;;0.88;;
30000;SDS011;16845;48.670;9.000;2023-03-14T04:57:23;6.00;;;1.08;;
30000;SDS011;16845;48.670;9.000;2023-03-14T04:59:51;7.15;;;1.33;;
30000;SDS011;16845;48.670;9.000;2023-03-14T05:02:20;6.80;;;1.20;;
30000;SDS011;16845;48.670;9.000;2023-03-14T05:04:48;2.95;;;0.88;;
30000;SDS011;16845;48.670;9.000;2023-03-14T05:07:16;8.50;;;2.20;;
30000;SDS011;16845;48.670;9.000;2023-03-14T05:09:44;2.72;;;1.42;;
30000;SDS011;16845;48.670;9.000;2023-03-14T05:12:12;6.90;;;1.25;;
30000;SDS011;16845;48.670;9.000;2023-03-14T05:14:39;3.67;;;0.90;;
30000;SDS011;16845;48.670;9.000;2023-03-14T05:17:07;2.25;;;1.00;;
30000;SDS011;16845;48.670;9.000;2023-03-14T05:19:37;4.85;;;1.08;;
30000;SDS011;16845;48.670;9.000;2023-03-14T05:22:04;4.05;;;1.75;;
30000;SDS011;16845;48.670;9.000;2023-03-14T05:24:32;5.20;;;0.85;;
30000;SDS011;16845;48.670;9.000;2023-03-14T05:27:00;1.13;;;0.60;;
30000;SDS011;16845;48.670;9.000;2023-03-14T05:29:28;5.05;;;1.30;;
30000;SDS011;16845;48.670;9.000;2023-03-14T05:31:57;5.35;;;1.10;;
30000;SDS011;16845;48.670;9.000;2023-03-14T05:34:24;7.70;;;0.93;;
30000;SDS011;16845;48.670;9.000;2023-03-14T05:36:54;5.97;;;1.15;;
30000;SDS011;16845;48.670;9.000;2023-03-14T05:39:22;6.38;;;1.35;;
30000;SDS011;16845;48.670;9.000;2023-03-14T05:41:50;3.50;;;1.27;;
30000;SDS011;16845;48.670;9.000;2023-03-14T05:44:20;3.72;;;1.08;;
30000;SDS011;16845;48.670;9.000;2023-03-14T05:46:48;3.70;;;1.13;;
30000;SDS011;16845;48.670;9.000;2023-03-14T05:49:15;1.85;;;1.13;;
30000;SDS011;16845;48.670;9.000;2023-03-14T05:51:43;3.70;;;1.42;;
30000;SDS011;16845;48.670;9.000;2023-03-14T05:54:13;4.05;;;1.02;;
30000;SDS011;16845;48.670;9.000;2023-03-14T05:56:40;6.28;;;1.17;;
30000;SDS011;16845;48.670;9.000;2023-03-14T05:59:08;4.05;;;1.02;;
30000;SDS011;16845;48.670;9.000;2023-03-14T06:01:36;7.75;;;1.35;;
30000;SDS011;16845;48.670;9.000;2023-03-14T06:04:04;2.58;;;1.05;;
30000;SDS011;16845;48.670;9.000;2023-03-14T06:06:32;4.38;;;1.08;;
30000;SDS011;16845;48.670;9.000;2023-03-14T06:09:00;3.67;;;1.00;;
30000;SDS011;16845;48.670;9.000;2023-03-14T06:11:29;4.78;;;1.08;;
30000;SDS011;16845;48.670;9.000;2023-03-14T06:13:57;5.43;;;1.15;;
30000;SDS011;16845;48.670;9.000;2023-03-14T06:16:25;6.20;;;1.42;;
30000;SDS011;16845;48.670;9.000;2023-03-14T06:18:53;6.55;;;1.05;;
30000;SDS011;16845;48.670;9.000;2023-03-14T06:21:21;3.15;;;0.98;;
30000;SDS011;16845;48.670;9.000;2023-03-14T06:23:49;3.53;;;1.00;;
30000;SDS011;16845;48.670;9.000;2023-03-14T06:26:17;5.18;;;0.95;;
30000;SDS011;16845;48.670;9.000;2023-03-14T06:28:46;1.63;;;0.90;;
30000;SDS011;16845;48.670;9.000;2023-03-14T06:31:14;3.03;;;0.88;;
30000;SDS011;16845;48.670;9.000;2023-03-14T06:33:42;0.80;;;0.55;;
30000;SDS011;16845;48.670;9.000;2023-03-14T06:36:10;1.92;;;0.77;;
30000;SDS011;16845;48.670;9.000;2023-03-14T06:38:38;2.55;;;1.10;;
30000;SDS011;16845;48.670;9.000;2023-03-14T06:41:06;1.08;;;0.55;;
30000;SDS011;16845;48.670;9.000;2023-03-14T06:43:34;3.25;;;0.90;;
30000;SDS011;16845;48.670;9.000;2023-03-14T06:46:04;1.00;;;0.75;;
30000;SDS011;16845;48.670;9.000;2023-03-14T06:48:32;1.77;;;0.70;;
30000;SDS011;16845;48.670;9.000;2023-03-14T06:51:00;1.05;;;0.93;;
30000;SDS011;16845;48.670;9.000;2023-03-14T06:53:28;2.55;;;0.60;;
30000;SDS011;16845;48.670;9.000;2023-03-14T06:55:56;1.73;;;0.60;;
30000;SDS011;16845;48.670;9.000;2023-03-14T06:58:24;4.93;;;0.73;;
30000;SDS011;16845;48.670;9.000;2023-03-14T07:00:52;4.53;;;0.73;;
30000;SDS011;16845;48.670;9.000;2023-03-14T07:03:21;1.48;;;0.80;;
30000;SDS011;16845;48.670;9.000;2023-03-14T07:05:50;3.00;;;0.60;;
30000;SDS011;16845;48.670;9.000;2023-03-14T07:08:18;2.58;;;0.60;;
30000;SDS011;16845;48.670;9.000;2023-03-14T07:10:46;1.27;;;0.80;;
30000;SDS011;16845;48.670;9.000;2023-03-14T07:13:13;0.80;;;0.45;;
30000;SDS011;16845;48.670;9.000;2023-03-14T07:15:41;0.88;;;0.50;;
30000;SDS011;16845;48.670;9.000;2023-03-14T07:18:10;1.88;;;0.70;;
30000;SDS011;16845;48.670;9.000;2023-03-14T07:20:39;2.17;;;0.63;;
30000;SDS011;16845;48.670;9.000;2023-03-14T07:23:07;2.28;;;0.63;;
30000;SDS011;16845;48.670;9.000;2023-03-14T07:25:35;0.73;;;0.50;;
30000;SDS011;16845;48.670;9.000;2023-03-14T07:28:03;1.23;;;0.60;;
30000;SDS011;16845;48.670;9.000;2023-03-14T07:30:30;1.23;;;0.50;;
30000;SDS011;16845;48.670;9.000;2023-03-14T07:32:58;1.65;;;0.50;;
30000;SDS011;16845;48.670;9.000;2023-03-14T07:35:26;1.02;;;0.40;;
30000;SDS011;16845;48.670;9.000;2023-03-14T07:37:55;4.95;;;0.80;;
30000;SDS011;16845;48.670;9.000;2023-03-14T07:40:23;0.80;;;0.40;;
30000;SDS011;16845;48.670;9.000;2023-03-14T07:42:51;0.90;;;0.57;;
30000;SDS011;16845;48.670;9.000;2023-03-14T07:45:21;2.08;;;0.75;;
30000;SDS011;16845;48.670;9.000;2023-03-14T07:47:50;1.75;;;0.60;;
30000;SDS011;16845;48.670;9.000;2023-03-14T07:50:18;1.23;;;0.60;;
30000;SDS011;16845;48.670;9.000;2023-03-14T07:52:46;1.48;;;0.50;;
30000;SDS011;16845;48.670;9.000;2023-03-14T07:55:15;1.63;;;0.45;;
30000;SDS011;16845;48.670;9.000;2023-03-14T07:57:43;1.88;;;0.45;;
30000;SDS011;16845;48.670;9.000;2023-03-14T08:00:11;6.05;;;0.90;;
30000;SDS011;16845;48.670;9.000;2023-03-14T08:02:41;1.17;;;0.60;;
30000;SDS011;16845;48.670;9.000;2023-03-14T08:05:09;1.70;;;0.70;;
30000;SDS011;16845;48.670;9.000;2023-03-14T08:07:37;2.95;;;0.73;;
30000;SDS011;16845;48.670;9.000;2023-03-14T08:10:06;2.83;;;0.60;;
30000;SDS011;16845;48.670;9.000;2023-03-14T08:12:36;0.75;;;0.50;;
30000;SDS011;16845;48.670;9.000;2023-03-14T08:15:04;0.45;;;0.30;;
30000;SDS011;16845;48.670;9.000;2023-03-14T08:17:32;2.38;;;0.50;;
30000;SDS011;16845;48.670;9.000;2023-03-14T08:20:00;0.73;;;0.60;;
30000;SDS011;16845;48.670;9.000;2023-03-14T08:22:32;1.23;;;0.80;;
30000;SDS011;16845;48.670;9.000;2023-03-14T08:25:00;1.63;;;0.57;;
30000;SDS011;16845;48.670;9.000;2023-03-14T08:27:28;3.22;;;0.55;;
30000;SDS011;16845;48.670;9.000;2023-03-14T08:29:57;1.50;;;0.70;;
30000;SDS011;16845;48.670;9.000;2023-03-14T08:32:25;1.00;;;0.50;;
30000;SDS011;16845;48.670;9.000;2023-03-14T08:34:53;1.10;;;0.52;;
30000;SDS011;16845;48.670;9.000;2023-03-14T08:37:21;1.30;;;0.55;;
30000;SDS011;16845;48.670;9.000;2023-03-14T08:39:52;1.90;;;0.40;;
30000;SDS011;16845;48.670;9.000;2023-03-14T08:42:20;2.38;;;0.40;;
30000;SDS011;16845;48.670;9.000;2023-03-14T08:44:48;1.75;;;0.75;;
30000;SDS011;16845;48.670;9.000;2023-03-14T08:47:19;1.05;;;0.40;;
30000;SDS011;16845;48.670;9.000;2023-03-14T08:49:47;2.25;;;0.73;;
30000;SDS011;16845;48.670;9.000;2023-03-14T08:52:15;1.77;;;0.60;;
30000;SDS011;16845;48.670;9.000;2023-03-14T08:54:43;3.50;;;0.65;;
30000;SDS011;16845;48.670;9.000;2023-03-14T08:57:11;0.40;;;0.30;;
30000;SDS011;16845;48.670;9.000;2023-03-14T08:59:39;3.05;;;0.60;;
30000;SDS011;16845;48.670;9.000;2023-03-14T09:02:08;1.88;;;0.70;;
30000;SDS011;16845;48.670;9.000;2023-03-14T09:04:40;1.30;;;0.55;;
30000;SDS011;16845;48.670;9.000;2023-03-14T09:07:08;2.28;;;0.60;;
30000;SDS011;16845;48.670;9.000;2023-03-14T09:09:36;1.80;;;0.65;;
30000;SDS011;16845;48.670;9.000;2023-03-14T09:12:04;1.83;;;0.50;;
30000;SDS011;16845;48.670;9.000;2023-03-14T09:14:32;1.67;;;1.13;;
30000;SDS011;16845;48.670;9.000;2023-03-14T09:17:00;2.58;;;0.60;;
30000;SDS011;16845;48.670;9.000;2023-03-14T09:19:28;1.50;;;0.60;;
30000;SDS011;16845;48.670;9.000;2023-03-14T09:21:57;5.85;;;0.65;;
30000;SDS011;16845;48.670;9.000;2023-03-14T09:24:25;2.35;;;0.45;;
30000;SDS011;16845;48.670;9.000;2023-03-14T09:26:54;0.50;;;0.40;;
30000;SDS011;16845;48.670;9.000;2023-03-14T09:29:23;0.40;;;0.40;;
30000;SDS011;16845;48.670;9.000;2023-03-14T09:31:51;3.78;;;0.70;;
30000;SDS011;16845;48.670;9.000;2023-03-14T09:34:19;3.38;;;0.60;;
30000;SDS011;16845;48.670;9.000;2023-03-14T09:36:47;0.52;;;0.40;;
30000;SDS011;16845;48.670;9.000;2023-03-14T09:39:16;1.30;;;0.40;;
30000;SDS011;16845;48.670;9.000;2023-03-14T09:41:44;0.40;;;0.40;;
30000;SDS011;16845;48.670;9.000;2023-03-14T09:44:16;1.90;;;0.40;;
30000;SDS011;16845;48.670;9.000;2023-03-14T09:46:47;1.55;;;0.40;;
30000;SDS011;16845;48.670;9.000;2023-03-14T09:49:20;0.60;;;0.40;;
30000;SDS011;16845;48.670;9.000;2023-03-14T09:51:52;0.43;;;0.40;;
30000;SDS011;16845;48.670;9.000;2023-03-14T09:54:29;1.55;;;0.40;;
30000;SDS011;16845;48.670;9.000;2023-03-14T09:56:58;0.57;;;0.40;;
30000;SDS011;16845;48.670;9.000;2023-03-14T09:59:26;0.70;;;0.40;;
30000;SDS011;16845;48.670;9.000;2023-03-14T10:01:58;0.50;;;0.40;;
30000;SDS011;16845;48.670;9.000;2023-03-14T10:04:28;0.45;;;0.38;;
30000;SDS011;16845;48.670;9.000;2023-03-14T10:06:58;0.98;;;0.60;;
30000;SDS011;16845;48.670;9.000;2023-03-14T10:09:32;1.02;;;0.47;;
30000;SDS011;16845;48.670;9.000;2023-03-14T10:12:01;1.10;;;0.35;;
30000;SDS011;16845;48.670;9.000;2023-03-14T10:14:36;0.30;;;0.30;;
30000;SDS011;16845;48.670;9.000;2023-03-14T10:17:06;0.30;;;0.30;;
30000;SDS011;16845;48.670;9.000;2023-03-14T10:19:36;2.58;;;0.38;;
30000;SDS011;16845;48.670;9.000;2023-03-14T10:22:04;1.17;;;0.43;;
30000;SDS011;16845;48.670;9.000;2023-03-14T10:24:42;0.85;;;0.52;;
30000;SDS011;16845;48.670;9.000;2023-03-14T10:27:17;1.00;;;0.70;;
30000;SDS011;16845;48.670;9.000;2023-03-14T10:29:51;1.05;;;0.40;;
30000;SDS011;16845;48.670;9.000;2023-03-14T10:32:23;1.75;;;0.50;;
30000;SDS011;16845;48.670;9.000;2023-03-14T10:35:17;0.50;;;0.45;;
30000;SDS011;16845;48.670;9.000;2023-03-14T10:37:48;0.40;;;0.40;;
30000;SDS011;16845;48.670;9.000;2023-03-14T10:40:24;0.50;;;0.38;;
30000;SDS011;16845;48.670;9.000;2023-03-14T10:42:57;6.32;;;0.70;;
30000;SDS011;16845;48.670;9.000;2023-03-14T10:45:29;0.43;;;0.40;;
30000;SDS011;16845;48.670;9.000;2023-03-14T10:48:05;0.30;;;0.30;;
30000;SDS011;16845;48.670;9.000;2023-03-14T10:50:47;1.77;;;0.35;;
30000;SDS011;16845;48.670;9.000;2023-03-14T10:53:17;0.30;;;0.30;;
30000;SDS011;16845;48.670;9.000;2023-03-14T10:55:47;0.63;;;0.30;;
30000;SDS011;16845;48.670;9.000;2023-03-14T10:58:19;3.47;;;0.77;;
30000;SDS011;16845;48.670;9.000;2023-03-14T11:00:50;2.20;;;0.60;;
30000;SDS011;16845;48.670;9.000;2023-03-14T11:03:24;2.35;;;1.38;;
30000;SDS011;16845;48.670;9.000;2023-03-14T11:05:56;0.60;;;0.40;;
30000;SDS011;16845;48.670;9.000;2023-03-14T11:08:27;3.85;;;0.50;;
30000;SDS011;16845;48.670;9.000;2023-03-14T11:11:09;0.73;;;0.43;;
30000;SDS011;16845;48.670;9.000;2023-03-14T11:13:43;5.68;;;0.50;;
30000;SDS011;16845;48.670;9.000;2023-03-14T11:16:21;2.70;;;0.57;;
30000;SDS011;16845;48.670;9.000;2023-03-14T11:19:00;0.30;;;0.30;;
30000;SDS011;16845;48.670;9.000;2023-03-14T11:21:41;0.85;;;0.80;;
30000;SDS011;16845;48.670;9.000;2023-03-14T11:24:18;0.50;;;0.40;;
30000;SDS011;16845;48.670;9.000;2023-03-14T11:26:59;0.47;;;0.40;;
30000;SDS011;16845;48.670;9.000;2023-03-14T11:29:33;1.45;;;1.35;;
30000;SDS011;16845;48.670;9.000;2023-03-14T11:32:10;0.35;;;0.35;;
30000;SDS011;16845;48.670;9.000;2023-03-14T11:34:42;0.93;;;0.60;;
30000;SDS011;16845;48.670;9.000;2023-03-14T11:37:20;0.47;;;0.47;;
30000;SDS011;16845;48.670;9.000;2023-03-14T11:39:55;0.40;;;0.40;;
30000;SDS011;16845;48.670;9.000;2023-03-14T11:42:29;0.80;;;0.68;;
30000;SDS011;16845;48.670;9.000;2023-03-14T11:44:59;0.38;;;0.30;;
30000;SDS011;16845;48.670;9.000;2023-03-14T11:47:29;0.63;;;0.40;;
30000;SDS011;16845;48.670;9.000;2023-03-14T11:50:02;0.30;;;0.30;;
30000;SDS011;16845;48.670;9.000;2023-03-14T11:52:35;0.63;;;0.57;;
30000;SDS011;16845;48.670;9.000;2023-03-14T11:55:10;0.60;;;0.40;;
30000;SDS011;16845;48.670;9.000;2023-03-14T11:57:46;1.02;;;0.55;;
30000;SDS011;16845;48.670;9.000;2023-03-14T12:00:18;0.40;;;0.40;;
30000;SDS011;16845;48.670;9.000;2023-03-14T12:02:48;0.82;;;0.40;;
30000;SDS011;16845;48.670;9.000;2023-03-14T12:05:28;0.40;;;0.40;;
30000;SDS011;16845;48.670;9.000;2023-03-14T12:08:22;1.23;;;0.63;;
30000;SDS011;16845;48.670;9.000;2023-03-14T12:11:00;0.80;;;0.47;;
30000;SDS011;16845;48.670;9.000;2023-03-14T12:13:36;0.40;;;0.40;;
30000;SDS011;16845;48.670;9.000;2023-03-14T12:16:06;0.40;;;0.40;;
30000;SDS011;16845;48.670;9.000;2023-03-14T12:18:47;0.65;;;0.40;;
30000;SDS011;16845;48.670;9.000;2023-03-14T12:21:15;0.30;;;0.30;;
30000;SDS011;16845;48.670;9.000;2023-03-14T12:23:44;0.40;;;0.40;;
30000;SDS011;16845;48.670;9.000;2023-03-14T12:26:16;0.30;;;0.30;;
30000;SDS011;16845;48.670;9.000;2023-03-14T12:28:50;0.63;;;0.47;;
30000;SDS011;16845;48.670;9.000;2023-03-14T12:31:38;3.25;;;0.57;;
30000;SDS011;16845;48.670;9.000;2023-03-14T12:34:26;1.05;;;0.40;;
30000;SDS011;16845;48.670;9.000;2023-03-14T12:37:12;0.75;;;0.60;;
30000;SDS011;16845;48.670;9.000;2023-03-14T12:39:48;3.53;;;0.47;;
30000;SDS011;16845;48.670;9.000;2023-03-14T12:45:15;1.67;;;0.57;;
30000;SDS011;16845;48.670;9.000;2023-03-14T12:47:50;2.08;;;0.50;;
30000;SDS011;16845;48.670;9.000;2023-03-14T12:50:36;1.17;;;0.65;;
30000;SDS011;16845;48.670;9.000;2023-03-14T12:53:25;0.90;;;0.50;;
30000;SDS011;16845;48.670;9.000;2023-03-14T12:56:24;1.00;;;0.50;;
30000;SDS011;16845;48.670;9.000;2023-03-14T13:01:54;3.65;;;0.98;;
30000;SDS011;16845;48.670;9.000;2023-03-14T13:04:31;2.15;;;0.60;;
30000;SDS011;16845;48.670;9.000;2023-03-14T13:07:10;2.97;;;0.50;;
30000;SDS011;16845;48.670;9.000;2023-03-14T13:14:59;3.00;;;0.70;;
30000;SDS011;16845;48.670;9.000;2023-03-14T13:17:32;1.63;;;0.70;;
30000;SDS011;16845;48.670;9.000;2023-03-14T13:20:05;1.63;;;0.80;;
30000;SDS011;16845;48.670;9.000;2023-03-14T13:22:40;3.45;;;0.90;;
30000;SDS011;16845;48.670;9.000;2023-03-14T13:25:14;1.25;;;0.70;;
30000;SDS011;16845;48.670;9.000;2023-03-14T13:27:43;2.67;;;0.70;;
30000;SDS011;16845;48.670;9.000;2023-03-14T13:30:19;2.00;;;0.65;;
30000;SDS011;16845;48.670;9.000;2023-03-14T13:32:51;3.13;;;0.88;;
30000;SDS011;16845;48.670;9.000;2023-03-14T13:35:22;2.33;;;1.10;;
30000;SDS011;16845;48.670;9.000;2023-03-14T13:37:52;1.45;;;0.88;;
30000;SDS011;16845;48.670;9.000;2023-03-14T13:40:36;7.07;;;1.38;;
30000;SDS011;16845;48.670;9.000;2023-03-14T13:43:06;2.58;;;0.90;;
30000;SDS011;16845;48.670;9.000;2023-03-14T13:45:43;3.60;;;0.88;;
30000;SDS011;16845;48.670;9.000;2023-03-14T13:48:14;1.65;;;0.90;;
30000;SDS011;16845;48.670;9.000;2023-03-14T13:50:53;2.30;;;0.90;;
30000;SDS011;16845;48.670;9.000;2023-03-14T13:53:23;2.28;;;1.02;;
30000;SDS011;16845;48.670;9.000;2023-03-14T13:55:52;3.95;;;1.10;;
30000;SDS011;16845;48.670;9.000;2023-03-14T13:58:21;2.03;;;0.93;;
30000;SDS011;16845;48.670;9.000;2023-03-14T14:00:55;5.22;;;0.90;;
30000;SDS011;16845;48.670;9.000;2023-03-14T14:03:29;3.17;;;1.08;;
30000;SDS011;16845;48.670;9.000;2023-03-14T14:05:58;4.43;;;0.90;;
30000;SDS011;16845;48.670;9.000;2023-03-14T14:08:27;3.45;;;0.60;;
30000;SDS011;16845;48.670;9.000;2023-03-14T14:10:57;5.25;;;0.85;;
30000;SDS011;16845;48.670;9.000;2023-03-14T14:13:28;2.47;;;0.55;;
30000;SDS011;16845;48.670;9.000;2023-03-14T14:15:58;2.08;;;0.63;;
30000;SDS011;16845;48.670;9.000;2023-03-14T14:18:31;4.35;;;0.90;;
30000;SDS011;16845;48.670;9.000;2023-03-14T14:21:00;5.68;;;0.90;;
30000;SDS011;16845;48.670;9.000;2023-03-14T14:23:30;3.20;;;1.25;;
30000;SDS011;16845;48.670;9.000;2023-03-14T14:25:58;1.63;;;0.63;;
30000;SDS011;16845;48.670;9.000;2023-03-14T14:28:27;1.75;;;0.70;;
30000;SDS011;16845;48.670;9.000;2023-03-14T14:31:16;2.83;;;1.60;;
30000;SDS011;16845;48.670;9.000;2023-03-14T14:33:54;9.65;;;0.80;;
30000;SDS011;16845;48.670;9.000;2023-03-14T14:36:24;5.82;;;1.13;;
30000;SDS011;16845;48.670;9.000;2023-03-14T14:38:56;1.80;;;0.82;;
30000;SDS011;16845;48.670;9.000;2023-03-14T14:41:26;1.23;;;0.80;;
30000;SDS011;16845;48.670;9.000;2023-03-14T14:43:57;2.40;;;1.00;;
30000;SDS011;16845;48.670;9.000;2023-03-14T14:46:26;2.53;;;0.73;;
30000;SDS011;16845;48.670;9.000;2023-03-14T14:49:01;5.30;;;1.42;;
30000;SDS011;16845;48.670;9.000;2023-03-14T14:51:32;1.52;;;0.90;;
30000;SDS011;16845;48.670;9.000;2023-03-14T14:54:09;10.35;;;1.38;;
30000;SDS011;16845;48.670;9.000;2023-03-14T14:56:39;6.13;;;1.42;;
30000;SDS011;16845;48.670;9.000;2023-03-14T14:59:18;4.05;;;0.82;;
30000;SDS011;16845;48.670;9.000;2023-03-14T15:01:54;1.52;;;0.73;;
30000;SDS011;16845;48.670;9.000;2023-03-14T15:04:25;5.63;;;0.75;;
30000;SDS011;16845;48.670;9.000;2023-03-14T15:06:54;3.83;;;1.15;;
30000;SDS011;16845;48.670;9.000;2023-03-14T15:09:22;7.82;;;1.48;;
30000;SDS011;16845;48.670;9.000;2023-03-14T15:11:50;10.45;;;2.95;;
30000;SDS011;16845;48.670;9.000;2023-03-14T15:14:18;2.80;;;0.98;;
30000;SDS011;16845;48.670;9.000;2023-03-14T15:16:45;3.60;;;0.82;;
30000;SDS011;16845;48.670;9.000;2023-03-14T15:19:16;2.35;;;0.98;;
30000;SDS011;16845;48.670;9.000;2023-03-14T15:21:52;3.70;;;0.90;;